sensor_id;sensor_type;location;lat;lon;timestamp;pressure;altitude;pressure_sealevel;temperature;humidity
65756;BME280;52489;47.502;18.940;2022-11-11T00:01:02;99635.59;;;7.02;92.70
65756;BME280;52489;47.502;18.940;2022-11-11T00:02:06;99637.78;;;6.94;92.69
65756;BME280;52489;47.502;18.940;2022-11-11T00:03:09;99634.06;;;6.90;92.76
65756;BME280;52489;47.502;18.940;2022-11-11T00:04:12;99632.84;;;6.80;93.40
65756;BME280;52489;47.502;18.940;2022-11-11T00:05:16;99637.13;;;6.87;93.35
65756;BME280;52489;47.502;18.940;2022-11-11T00:06:19;99631.22;;;6.91;92.98
65756;BME280;52489;47.502;18.940;2022-11-11T00:07:22;99635.44;;;6.80;93.51
65756;BME280;52489;47.502;18.940;2022-11-11T00:08:25;99635.56;;;6.74;94.20
65756;BME280;52489;47.502;18.940;2022-11-11T00:09:28;99635.66;;;6.79;94.25
65756;BME280;52489;47.502;18.940;2022-11-11T00:10:31;99636.44;;;6.79;94.36
65756;BME280;52489;47.502;18.940;2022-11-11T00:11:37;99636.00;;;6.82;94.45
65756;BME280;52489;47.502;18.940;2022-11-11T00:12:40;99640.72;;;6.97;93.49
65756;BME280;52489;47.502;18.940;2022-11-11T00:13:43;99644.56;;;6.95;93.33
65756;BME280;52489;47.502;18.940;2022-11-11T00:14:46;99634.28;;;6.88;93.65
65756;BME280;52489;47.502;18.940;2022-11-11T00:15:52;99632.38;;;6.83;94.14
65756;BME280;52489;47.502;18.940;2022-11-11T00:16:55;99638.88;;;6.98;93.63
65756;BME280;52489;47.502;18.940;2022-11-11T00:18:16;99634.06;;;6.90;93.50
65756;BME280;52489;47.502;18.940;2022-11-11T00:19:37;99638.84;;;6.81;93.83
65756;BME280;52489;47.502;18.940;2022-11-11T00:20:59;99646.97;;;6.84;93.54
65756;BME280;52489;47.502;18.940;2022-11-11T00:22:21;99659.59;;;6.64;94.29
65756;BME280;52489;47.502;18.940;2022-11-11T00:23:43;99648.59;;;6.74;94.25
65756;BME280;52489;47.502;18.940;2022-11-11T00:25:04;99655.38;;;6.75;94.23
65756;BME280;52489;47.502;18.940;2022-11-11T00:26:13;99654.69;;;6.79;94.30
65756;BME280;52489;47.502;18.940;2022-11-11T00:27:39;99652.09;;;6.68;94.45
65756;BME280;52489;47.502;18.940;2022-11-11T00:28:42;99651.66;;;6.71;94.29
65756;BME280;52489;47.502;18.940;2022-11-11T00:29:49;99645.97;;;6.74;94.02
65756;BME280;52489;47.502;18.940;2022-11-11T00:31:00;99642.47;;;6.68;94.11
65756;BME280;52489;47.502;18.940;2022-11-11T00:32:07;99643.37;;;6.74;94.16
65756;BME280;52489;47.502;18.940;2022-11-11T00:33:26;99643.34;;;6.86;93.34
65756;BME280;52489;47.502;18.940;2022-11-11T00:34:29;99650.16;;;6.87;93.09
65756;BME280;52489;47.502;18.940;2022-11-11T00:35:32;99649.00;;;6.82;92.98
65756;BME280;52489;47.502;18.940;2022-11-11T00:36:53;99645.88;;;6.80;92.89
65756;BME280;52489;47.502;18.940;2022-11-11T00:38:06;99652.16;;;6.96;92.45
65756;BME280;52489;47.502;18.940;2022-11-11T00:39:09;99653.22;;;6.83;93.09
65756;BME280;52489;47.502;18.940;2022-11-11T00:40:12;99652.66;;;6.81;93.28
65756;BME280;52489;47.502;18.940;2022-11-11T00:41:20;99643.94;;;6.76;93.26
65756;BME280;52489;47.502;18.940;2022-11-11T00:42:24;99644.41;;;6.73;93.12
65756;BME280;52489;47.502;18.940;2022-11-11T00:43:27;99646.44;;;6.71;93.05
65756;BME280;52489;47.502;18.940;2022-11-11T00:44:30;99648.38;;;6.75;93.02
65756;BME280;52489;47.502;18.940;2022-11-11T00:45:34;99656.50;;;6.79;92.52
65756;BME280;52489;47.502;18.940;2022-11-11T00:46:37;99649.81;;;6.83;92.17
65756;BME280;52489;47.502;18.940;2022-11-11T00:47:58;99642.69;;;6.78;92.59
65756;BME280;52489;47.502;18.940;2022-11-11T00:49:20;99652.53;;;6.76;92.59
65756;BME280;52489;47.502;18.940;2022-11-11T00:50:41;99647.56;;;6.75;92.82
65756;BME280;52489;47.502;18.940;2022-11-11T00:52:00;99650.75;;;6.65;92.59
65756;BME280;52489;47.502;18.940;2022-11-11T00:53:07;99653.94;;;6.55;93.49
65756;BME280;52489;47.502;18.940;2022-11-11T00:54:10;99657.25;;;6.51;94.12
65756;BME280;52489;47.502;18.940;2022-11-11T00:55:14;99656.53;;;6.55;94.22
65756;BME280;52489;47.502;18.940;2022-11-11T00:56:17;99655.19;;;6.53;94.38
65756;BME280;52489;47.502;18.940;2022-11-11T00:57:20;99658.13;;;6.45;94.81
65756;BME280;52489;47.502;18.940;2022-11-11T00:58:23;99655.44;;;6.51;95.14
65756;BME280;52489;47.502;18.940;2022-11-11T00:59:26;99655.53;;;6.45;96.09
65756;BME280;52489;47.502;18.940;2022-11-11T01:00:29;99653.72;;;6.45;95.90
65756;BME280;52489;47.502;18.940;2022-11-11T01:01:34;99658.56;;;6.53;95.54
65756;BME280;52489;47.502;18.940;2022-11-11T01:02:38;99650.31;;;6.45;96.04
65756;BME280;52489;47.502;18.940;2022-11-11T01:03:41;99650.78;;;6.42;96.58
65756;BME280;52489;47.502;18.940;2022-11-11T01:04:44;99647.03;;;6.49;96.09
65756;BME280;52489;47.502;18.940;2022-11-11T01:05:47;99650.09;;;6.58;95.77
65756;BME280;52489;47.502;18.940;2022-11-11T01:06:51;99648.06;;;6.60;95.63
65756;BME280;52489;47.502;18.940;2022-11-11T01:07:54;99644.75;;;6.53;95.95
65756;BME280;52489;47.502;18.940;2022-11-11T01:08:57;99649.87;;;6.48;96.48
65756;BME280;52489;47.502;18.940;2022-11-11T01:10:00;99646.91;;;6.56;96.38
65756;BME280;52489;47.502;18.940;2022-11-11T01:11:11;99643.19;;;6.64;95.91
65756;BME280;52489;47.502;18.940;2022-11-11T01:12:14;99647.62;;;6.51;96.24
65756;BME280;52489;47.502;18.940;2022-11-11T01:13:24;99651.91;;;6.46;96.98
65756;BME280;52489;47.502;18.940;2022-11-11T01:14:27;99645.09;;;6.45;97.20
65756;BME280;52489;47.502;18.940;2022-11-11T01:15:32;99644.69;;;6.48;97.25
65756;BME280;52489;47.502;18.940;2022-11-11T01:16:35;99642.94;;;6.53;96.81
65756;BME280;52489;47.502;18.940;2022-11-11T01:17:38;99646.69;;;6.57;95.92
65756;BME280;52489;47.502;18.940;2022-11-11T01:18:42;99643.50;;;6.67;95.61
65756;BME280;52489;47.502;18.940;2022-11-11T01:19:45;99642.72;;;6.67;95.51
65756;BME280;52489;47.502;18.940;2022-11-11T01:20:57;99655.06;;;6.59;95.38
65756;BME280;52489;47.502;18.940;2022-11-11T01:22:01;99647.03;;;6.49;96.68
65756;BME280;52489;47.502;18.940;2022-11-11T01:23:05;99654.72;;;6.56;96.03
65756;BME280;52489;47.502;18.940;2022-11-11T01:24:09;99651.78;;;6.52;96.00
65756;BME280;52489;47.502;18.940;2022-11-11T01:25:12;99650.31;;;6.45;96.50
65756;BME280;52489;47.502;18.940;2022-11-11T01:26:26;99651.00;;;6.28;97.00
65756;BME280;52489;47.502;18.940;2022-11-11T01:27:33;99645.69;;;6.35;97.12
65756;BME280;52489;47.502;18.940;2022-11-11T01:28:37;99651.22;;;6.38;97.33
65756;BME280;52489;47.502;18.940;2022-11-11T01:29:40;99650.66;;;6.48;96.87
65756;BME280;52489;47.502;18.940;2022-11-11T01:30:43;99654.06;;;6.49;96.77
65756;BME280;52489;47.502;18.940;2022-11-11T01:31:46;99649.75;;;6.54;96.36
65756;BME280;52489;47.502;18.940;2022-11-11T01:32:49;99650.78;;;6.42;97.08
65756;BME280;52489;47.502;18.940;2022-11-11T01:33:52;99653.59;;;6.52;97.26
65756;BME280;52489;47.502;18.940;2022-11-11T01:34:55;99650.56;;;6.43;97.12
65756;BME280;52489;47.502;18.940;2022-11-11T01:36:06;99651.78;;;6.52;96.83
65756;BME280;52489;47.502;18.940;2022-11-11T01:37:09;99649.97;;;6.53;96.73
65756;BME280;52489;47.502;18.940;2022-11-11T01:38:12;99653.38;;;6.53;95.99
65756;BME280;52489;47.502;18.940;2022-11-11T01:39:15;99653.28;;;6.48;96.15
65756;BME280;52489;47.502;18.940;2022-11-11T01:40:19;99661.53;;;6.45;96.38
65756;BME280;52489;47.502;18.940;2022-11-11T01:41:25;99655.66;;;6.38;96.42
65756;BME280;52489;47.502;18.940;2022-11-11T01:42:51;99652.91;;;6.33;96.87
65756;BME280;52489;47.502;18.940;2022-11-11T01:43:54;99658.81;;;6.40;96.83
65756;BME280;52489;47.502;18.940;2022-11-11T01:44:57;99654.53;;;6.46;96.69
65756;BME280;52489;47.502;18.940;2022-11-11T01:46:00;99661.09;;;6.48;96.74
65756;BME280;52489;47.502;18.940;2022-11-11T01:47:05;99656.78;;;6.42;96.74
65756;BME280;52489;47.502;18.940;2022-11-11T01:48:34;99662.53;;;6.44;96.86
65756;BME280;52489;47.502;18.940;2022-11-11T01:50:00;99655.19;;;6.41;96.85
65756;BME280;52489;47.502;18.940;2022-11-11T01:51:11;99661.75;;;6.44;96.79
65756;BME280;52489;47.502;18.940;2022-11-11T01:52:29;99655.63;;;6.50;96.52
65756;BME280;52489;47.502;18.940;2022-11-11T01:53:33;99652.59;;;6.41;96.82
65756;BME280;52489;47.502;18.940;2022-11-11T01:54:43;99660.31;;;6.48;96.82
65756;BME280;52489;47.502;18.940;2022-11-11T01:55:48;99646.03;;;6.38;97.12
65756;BME280;52489;47.502;18.940;2022-11-11T01:56:57;99648.63;;;6.38;97.42
65756;BME280;52489;47.502;18.940;2022-11-11T01:58:06;99648.97;;;6.42;97.51
65756;BME280;52489;47.502;18.940;2022-11-11T01:59:12;99642.41;;;6.40;97.39
65756;BME280;52489;47.502;18.940;2022-11-11T02:00:18;99649.44;;;6.39;97.29
65756;BME280;52489;47.502;18.940;2022-11-11T02:01:25;99641.38;;;6.41;97.25
65756;BME280;52489;47.502;18.940;2022-11-11T02:02:36;99640.72;;;6.45;97.11
65756;BME280;52489;47.502;18.940;2022-11-11T02:03:41;99646.00;;;6.50;96.50
65756;BME280;52489;47.502;18.940;2022-11-11T02:05:09;99646.47;;;6.47;96.71
65756;BME280;52489;47.502;18.940;2022-11-11T02:06:31;99647.72;;;6.45;96.55
65756;BME280;52489;47.502;18.940;2022-11-11T02:07:35;99656.22;;;6.40;96.96
65756;BME280;52489;47.502;18.940;2022-11-11T02:08:40;99644.56;;;6.31;97.28
65756;BME280;52489;47.502;18.940;2022-11-11T02:09:46;99651.59;;;6.42;97.30
65756;BME280;52489;47.502;18.940;2022-11-11T02:10:49;99657.00;;;6.41;96.76
65756;BME280;52489;47.502;18.940;2022-11-11T02:11:54;99654.84;;;6.37;97.04
65756;BME280;52489;47.502;18.940;2022-11-11T02:13:18;99646.25;;;6.37;97.02
65756;BME280;52489;47.502;18.940;2022-11-11T02:14:45;99658.56;;;6.42;97.03
65756;BME280;52489;47.502;18.940;2022-11-11T02:15:49;99652.81;;;6.40;96.88
65756;BME280;52489;47.502;18.940;2022-11-11T02:16:52;99662.66;;;6.37;97.13
65756;BME280;52489;47.502;18.940;2022-11-11T02:17:55;99662.66;;;6.37;97.17
65756;BME280;52489;47.502;18.940;2022-11-11T02:18:58;99660.19;;;6.43;97.18
65756;BME280;52489;47.502;18.940;2022-11-11T02:20:02;99654.66;;;6.39;97.24
65756;BME280;52489;47.502;18.940;2022-11-11T02:21:06;99660.84;;;6.38;96.99
65756;BME280;52489;47.502;18.940;2022-11-11T02:22:13;99660.97;;;6.43;97.00
65756;BME280;52489;47.502;18.940;2022-11-11T02:23:37;99657.34;;;6.44;96.59
65756;BME280;52489;47.502;18.940;2022-11-11T02:24:41;99660.63;;;6.40;96.65
65756;BME280;52489;47.502;18.940;2022-11-11T02:25:48;99651.81;;;6.41;96.72
65756;BME280;52489;47.502;18.940;2022-11-11T02:26:53;99660.72;;;6.45;96.34
65756;BME280;52489;47.502;18.940;2022-11-11T02:28:04;99659.94;;;6.44;96.23
65756;BME280;52489;47.502;18.940;2022-11-11T02:29:12;99663.78;;;6.53;95.58
65756;BME280;52489;47.502;18.940;2022-11-11T02:30:19;99659.72;;;6.46;95.56
65756;BME280;52489;47.502;18.940;2022-11-11T02:31:27;99663.69;;;6.48;95.25
65756;BME280;52489;47.502;18.940;2022-11-11T02:32:31;99662.91;;;6.48;95.20
65756;BME280;52489;47.502;18.940;2022-11-11T02:33:34;99654.66;;;6.39;95.71
65756;BME280;52489;47.502;18.940;2022-11-11T02:34:37;99653.50;;;6.35;96.17
65756;BME280;52489;47.502;18.940;2022-11-11T02:35:44;99655.44;;;6.40;96.07
65756;BME280;52489;47.502;18.940;2022-11-11T02:36:49;99657.34;;;6.44;95.74
65756;BME280;52489;47.502;18.940;2022-11-11T02:37:52;99663.78;;;6.42;95.68
65756;BME280;52489;47.502;18.940;2022-11-11T02:38:55;99663.00;;;6.41;95.41
65756;BME280;52489;47.502;18.940;2022-11-11T02:40:00;99663.34;;;6.33;95.85
65756;BME280;52489;47.502;18.940;2022-11-11T02:41:07;99667.66;;;6.39;95.46
65756;BME280;52489;47.502;18.940;2022-11-11T02:42:29;99668.66;;;6.38;95.55
65756;BME280;52489;47.502;18.940;2022-11-11T02:43:33;99672.87;;;6.39;95.04
65756;BME280;52489;47.502;18.940;2022-11-11T02:44:36;99662.53;;;6.32;95.11
65756;BME280;52489;47.502;18.940;2022-11-11T02:45:42;99666.50;;;6.23;95.32
65756;BME280;52489;47.502;18.940;2022-11-11T02:46:45;99670.34;;;6.21;95.42
65756;BME280;52489;47.502;18.940;2022-11-11T02:47:48;99670.00;;;6.17;95.73
65756;BME280;52489;47.502;18.940;2022-11-11T02:48:51;99677.38;;;6.32;95.40
65756;BME280;52489;47.502;18.940;2022-11-11T02:49:54;99677.50;;;6.37;94.87
65756;BME280;52489;47.502;18.940;2022-11-11T02:50:57;99672.28;;;6.37;94.66
65756;BME280;52489;47.502;18.940;2022-11-11T02:51:59;99671.50;;;6.25;95.01
65756;BME280;52489;47.502;18.940;2022-11-11T02:53:02;99676.38;;;6.21;95.44
65756;BME280;52489;47.502;18.940;2022-11-11T02:54:05;99674.88;;;6.13;96.08
65756;BME280;52489;47.502;18.940;2022-11-11T02:55:09;99679.50;;;6.11;96.51
65756;BME280;52489;47.502;18.940;2022-11-11T02:56:12;99682.44;;;6.15;96.68
65756;BME280;52489;47.502;18.940;2022-11-11T02:57:36;99684.38;;;6.20;96.37
65756;BME280;52489;47.502;18.940;2022-11-11T02:58:39;99686.53;;;6.11;96.90
65756;BME280;52489;47.502;18.940;2022-11-11T02:59:43;99682.69;;;6.13;96.76
65756;BME280;52489;47.502;18.940;2022-11-11T03:00:46;99678.84;;;6.16;96.82
65756;BME280;52489;47.502;18.940;2022-11-11T03:01:49;99685.62;;;6.29;96.33
65756;BME280;52489;47.502;18.940;2022-11-11T03:02:52;99681.66;;;6.26;96.51
65756;BME280;52489;47.502;18.940;2022-11-11T03:03:55;99680.44;;;6.29;96.33
65756;BME280;52489;47.502;18.940;2022-11-11T03:04:58;99685.41;;;6.19;97.25
65756;BME280;52489;47.502;18.940;2022-11-11T03:06:01;99690.72;;;6.12;97.51
65756;BME280;52489;47.502;18.940;2022-11-11T03:07:04;99690.38;;;6.08;97.64
65756;BME280;52489;47.502;18.940;2022-11-11T03:08:08;99699.31;;;6.12;97.56
65756;BME280;52489;47.502;18.940;2022-11-11T03:09:11;99694.13;;;6.12;97.63
65756;BME280;52489;47.502;18.940;2022-11-11T03:10:15;99695.69;;;6.13;97.40
65756;BME280;52489;47.502;18.940;2022-11-11T03:11:18;99696.94;;;6.11;97.55
65756;BME280;52489;47.502;18.940;2022-11-11T03:12:29;99703.25;;;6.15;97.48
65756;BME280;52489;47.502;18.940;2022-11-11T03:13:32;99703.25;;;6.15;97.54
65756;BME280;52489;47.502;18.940;2022-11-11T03:14:35;99702.41;;;6.21;97.33
65756;BME280;52489;47.502;18.940;2022-11-11T03:15:39;99699.34;;;6.24;97.00
65756;BME280;52489;47.502;18.940;2022-11-11T03:16:42;99702.81;;;6.18;97.23
65756;BME280;52489;47.502;18.940;2022-11-11T03:18:04;99703.84;;;6.17;97.68
65756;BME280;52489;47.502;18.940;2022-11-11T03:19:07;99701.94;;;6.24;97.45
65756;BME280;52489;47.502;18.940;2022-11-11T03:20:15;99702.72;;;6.25;97.56
65756;BME280;52489;47.502;18.940;2022-11-11T03:21:37;99708.72;;;6.25;97.33
65756;BME280;52489;47.502;18.940;2022-11-11T03:23:08;99706.69;;;6.15;97.57
65756;BME280;52489;47.502;18.940;2022-11-11T03:24:12;99706.31;;;6.12;97.93
65756;BME280;52489;47.502;18.940;2022-11-11T03:25:15;99708.38;;;6.10;98.27
65756;BME280;52489;47.502;18.940;2022-11-11T03:26:37;99703.94;;;6.10;98.41
65756;BME280;52489;47.502;18.940;2022-11-11T03:27:41;99707.47;;;6.16;98.30
65756;BME280;52489;47.502;18.940;2022-11-11T03:28:44;99713.81;;;6.20;98.47
65756;BME280;52489;47.502;18.940;2022-11-11T03:29:51;99694.47;;;6.16;98.43
65756;BME280;52489;47.502;18.940;2022-11-11T03:30:54;99707.16;;;6.24;98.16
65756;BME280;52489;47.502;18.940;2022-11-11T03:31:56;99708.72;;;6.25;98.08
65756;BME280;52489;47.502;18.940;2022-11-11T03:33:00;99707.94;;;6.25;98.22
65756;BME280;52489;47.502;18.940;2022-11-11T03:34:03;99717.09;;;6.27;97.97
65756;BME280;52489;47.502;18.940;2022-11-11T03:35:21;99718.09;;;6.26;98.04
65756;BME280;52489;47.502;18.940;2022-11-11T03:36:24;99713.22;;;6.30;98.00
65756;BME280;52489;47.502;18.940;2022-11-11T03:37:47;99719.94;;;6.37;97.52
65756;BME280;52489;47.502;18.940;2022-11-11T03:39:09;99718.69;;;6.28;97.63
65756;BME280;52489;47.502;18.940;2022-11-11T03:40:12;99722.97;;;6.23;98.30
65756;BME280;52489;47.502;18.940;2022-11-11T03:41:15;99722.97;;;6.34;97.46
65756;BME280;52489;47.502;18.940;2022-11-11T03:42:18;99722.97;;;6.23;97.96
65756;BME280;52489;47.502;18.940;2022-11-11T03:43:23;99714.38;;;6.22;98.36
65756;BME280;52489;47.502;18.940;2022-11-11T03:44:28;99713.69;;;6.27;98.05
65756;BME280;52489;47.502;18.940;2022-11-11T03:45:34;99722.19;;;6.22;98.40
65756;BME280;52489;47.502;18.940;2022-11-11T03:46:37;99721.41;;;6.22;98.36
65756;BME280;52489;47.502;18.940;2022-11-11T03:47:40;99719.03;;;6.32;97.89
65756;BME280;52489;47.502;18.940;2022-11-11T03:48:43;99720.72;;;6.38;97.67
65756;BME280;52489;47.502;18.940;2022-11-11T03:49:46;99720.03;;;6.31;97.80
65756;BME280;52489;47.502;18.940;2022-11-11T03:50:50;99719.47;;;6.41;97.41
65756;BME280;52489;47.502;18.940;2022-11-11T03:51:54;99718.81;;;6.45;97.13
65756;BME280;52489;47.502;18.940;2022-11-11T03:52:56;99720.97;;;6.48;96.88
65756;BME280;52489;47.502;18.940;2022-11-11T03:54:03;99721.19;;;6.47;96.90
65756;BME280;52489;47.502;18.940;2022-11-11T03:55:07;99719.47;;;6.41;97.19
65756;BME280;52489;47.502;18.940;2022-11-11T03:56:09;99718.00;;;6.45;97.06
65756;BME280;52489;47.502;18.940;2022-11-11T03:57:12;99715.31;;;6.40;97.10
65756;BME280;52489;47.502;18.940;2022-11-11T03:58:34;99716.28;;;6.38;96.94
65756;BME280;52489;47.502;18.940;2022-11-11T03:59:40;99720.59;;;6.45;96.51
65756;BME280;52489;47.502;18.940;2022-11-11T04:00:43;99717.00;;;6.46;96.18
65756;BME280;52489;47.502;18.940;2022-11-11T04:01:47;99716.66;;;6.30;96.49
65756;BME280;52489;47.502;18.940;2022-11-11T04:03:12;99724.00;;;6.22;97.25
65756;BME280;52489;47.502;18.940;2022-11-11T04:04:34;99723.75;;;6.23;97.73
65756;BME280;52489;47.502;18.940;2022-11-11T04:05:56;99724.66;;;6.17;98.09
65756;BME280;52489;47.502;18.940;2022-11-11T04:07:18;99723.62;;;6.18;98.14
65756;BME280;52489;47.502;18.940;2022-11-11T04:08:40;99716.28;;;6.15;98.17
65756;BME280;52489;47.502;18.940;2022-11-11T04:10:01;99719.47;;;6.17;98.15
65756;BME280;52489;47.502;18.940;2022-11-11T04:11:27;99724.06;;;6.15;98.14
65756;BME280;52489;47.502;18.940;2022-11-11T04:12:32;99724.53;;;6.12;98.18
65756;BME280;52489;47.502;18.940;2022-11-11T04:13:59;99725.78;;;6.09;98.09
65756;BME280;52489;47.502;18.940;2022-11-11T04:15:22;99724.97;;;6.09;98.11
65756;BME280;52489;47.502;18.940;2022-11-11T04:16:43;99730.88;;;6.16;97.90
65756;BME280;52489;47.502;18.940;2022-11-11T04:17:46;99732.56;;;5.99;98.64
65756;BME280;52489;47.502;18.940;2022-11-11T04:18:49;99730.62;;;6.06;98.70
65756;BME280;52489;47.502;18.940;2022-11-11T04:20:11;99727.37;;;6.10;98.60
65756;BME280;52489;47.502;18.940;2022-11-11T04:21:33;99726.34;;;6.11;98.36
65756;BME280;52489;47.502;18.940;2022-11-11T04:22:45;99729.06;;;6.17;97.99
65756;BME280;52489;47.502;18.940;2022-11-11T04:23:50;99728.28;;;6.16;97.92
65756;BME280;52489;47.502;18.940;2022-11-11T04:24:52;99731.53;;;6.11;98.11
65756;BME280;52489;47.502;18.940;2022-11-11T04:26:14;99727.06;;;6.19;97.92
65756;BME280;52489;47.502;18.940;2022-11-11T04:27:18;99727.37;;;6.10;97.97
65756;BME280;52489;47.502;18.940;2022-11-11T04:28:21;99728.84;;;6.06;98.16
65756;BME280;52489;47.502;18.940;2022-11-11T04:29:43;99725.00;;;6.21;97.54
65756;BME280;52489;47.502;18.940;2022-11-11T04:30:48;99726.13;;;6.13;97.53
65756;BME280;52489;47.502;18.940;2022-11-11T04:31:51;99730.62;;;6.06;97.70
65756;BME280;52489;47.502;18.940;2022-11-11T04:33:13;99732.34;;;6.12;97.61
65756;BME280;52489;47.502;18.940;2022-11-11T04:34:16;99736.06;;;6.04;97.83
65756;BME280;52489;47.502;18.940;2022-11-11T04:35:19;99739.25;;;6.06;97.96
65756;BME280;52489;47.502;18.940;2022-11-11T04:36:22;99732.69;;;6.04;97.99
65756;BME280;52489;47.502;18.940;2022-11-11T04:37:26;99740.94;;;6.01;98.09
65756;BME280;52489;47.502;18.940;2022-11-11T04:38:30;99730.97;;;5.98;98.34
65756;BME280;52489;47.502;18.940;2022-11-11T04:39:55;99739.00;;;6.08;97.87
65756;BME280;52489;47.502;18.940;2022-11-11T04:41:16;99744.22;;;6.08;97.73
65756;BME280;52489;47.502;18.940;2022-11-11T04:42:19;99735.63;;;6.07;97.42
65756;BME280;52489;47.502;18.940;2022-11-11T04:43:22;99738.88;;;6.03;97.72
65756;BME280;52489;47.502;18.940;2022-11-11T04:44:25;99738.78;;;5.98;98.07
65756;BME280;52489;47.502;18.940;2022-11-11T04:45:47;99745.31;;;6.00;98.06
65756;BME280;52489;47.502;18.940;2022-11-11T04:46:50;99739.59;;;6.10;97.42
65756;BME280;52489;47.502;18.940;2022-11-11T04:47:55;99741.72;;;6.01;97.17
65756;BME280;52489;47.502;18.940;2022-11-11T04:48:59;99745.31;;;6.00;97.21
65756;BME280;52489;47.502;18.940;2022-11-11T04:50:02;99737.06;;;6.03;97.19
65756;BME280;52489;47.502;18.940;2022-11-11T04:51:09;99744.47;;;6.06;96.92
65756;BME280;52489;47.502;18.940;2022-11-11T04:52:12;99741.94;;;6.00;96.58
65756;BME280;52489;47.502;18.940;2022-11-11T04:53:33;99741.84;;;6.06;96.59
65756;BME280;52489;47.502;18.940;2022-11-11T04:54:35;99749.37;;;5.96;96.55
65756;BME280;52489;47.502;18.940;2022-11-11T04:55:58;99745.75;;;5.97;96.68
65756;BME280;52489;47.502;18.940;2022-11-11T04:57:20;99744.44;;;5.95;96.31
65756;BME280;52489;47.502;18.940;2022-11-11T04:58:26;99749.00;;;5.92;96.40
65756;BME280;52489;47.502;18.940;2022-11-11T04:59:29;99750.53;;;6.00;96.19
65756;BME280;52489;47.502;18.940;2022-11-11T05:00:33;99748.09;;;5.87;96.20
65756;BME280;52489;47.502;18.940;2022-11-11T05:01:39;99746.56;;;5.98;95.87
65756;BME280;52489;47.502;18.940;2022-11-11T05:03:00;99746.56;;;5.98;95.40
65756;BME280;52489;47.502;18.940;2022-11-11T05:04:19;99752.81;;;5.78;96.16
65756;BME280;52489;47.502;18.940;2022-11-11T05:05:23;99751.69;;;5.74;96.73
65756;BME280;52489;47.502;18.940;2022-11-11T05:06:26;99750.00;;;5.80;96.81
65756;BME280;52489;47.502;18.940;2022-11-11T05:07:48;99750.25;;;5.90;96.03
65756;BME280;52489;47.502;18.940;2022-11-11T05:09:09;99740.44;;;5.92;95.10
65756;BME280;52489;47.502;18.940;2022-11-11T05:10:15;99745.44;;;5.75;95.63
65756;BME280;52489;47.502;18.940;2022-11-11T05:11:20;99741.72;;;5.71;95.91
65756;BME280;52489;47.502;18.940;2022-11-11T05:12:23;99750.59;;;5.63;96.33
65756;BME280;52489;47.502;18.940;2022-11-11T05:13:26;99750.59;;;5.63;96.53
65756;BME280;52489;47.502;18.940;2022-11-11T05:14:47;99748.22;;;5.62;96.53
65756;BME280;52489;47.502;18.940;2022-11-11T05:16:19;99753.66;;;5.60;96.49
65756;BME280;52489;47.502;18.940;2022-11-11T05:17:42;99748.19;;;5.80;95.53
65756;BME280;52489;47.502;18.940;2022-11-11T05:19:17;99754.03;;;5.76;95.66
65756;BME280;52489;47.502;18.940;2022-11-11T05:20:38;99753.22;;;5.63;95.72
65756;BME280;52489;47.502;18.940;2022-11-11T05:23:32;99755.47;;;5.60;95.26
65756;BME280;52489;47.502;18.940;2022-11-11T05:24:54;99748.31;;;5.55;95.55
65756;BME280;52489;47.502;18.940;2022-11-11T05:26:16;99750.69;;;5.57;95.03
65756;BME280;52489;47.502;18.940;2022-11-11T05:27:19;99748.66;;;5.59;95.20
65756;BME280;52489;47.502;18.940;2022-11-11T05:28:22;99754.97;;;5.51;94.81
65756;BME280;52489;47.502;18.940;2022-11-11T05:29:25;99753.81;;;5.47;94.81
65756;BME280;52489;47.502;18.940;2022-11-11T05:30:28;99748.66;;;5.59;94.42
65756;BME280;52489;47.502;18.940;2022-11-11T05:31:31;99751.94;;;5.54;94.00
65756;BME280;52489;47.502;18.940;2022-11-11T05:32:34;99762.91;;;5.56;93.76
65756;BME280;52489;47.502;18.940;2022-11-11T05:33:38;99760.22;;;5.63;93.47
65756;BME280;52489;47.502;18.940;2022-11-11T05:34:40;99754.66;;;5.59;93.27
65756;BME280;52489;47.502;18.940;2022-11-11T05:35:43;99748.97;;;5.51;94.04
65756;BME280;52489;47.502;18.940;2022-11-11T05:36:46;99756.78;;;5.32;95.69
65756;BME280;52489;47.502;18.940;2022-11-11T05:38:01;99751.44;;;5.45;95.15
65756;BME280;52489;47.502;18.940;2022-11-11T05:39:22;99759.72;;;5.54;94.90
65756;BME280;52489;47.502;18.940;2022-11-11T05:40:25;99757.56;;;5.51;95.09
65756;BME280;52489;47.502;18.940;2022-11-11T05:41:28;99761.47;;;5.42;95.67
65756;BME280;52489;47.502;18.940;2022-11-11T05:42:31;99757.72;;;5.38;96.34
65756;BME280;52489;47.502;18.940;2022-11-11T05:43:34;99760.62;;;5.30;96.91
65756;BME280;52489;47.502;18.940;2022-11-11T05:44:36;99772.44;;;5.25;97.23
65756;BME280;52489;47.502;18.940;2022-11-11T05:45:42;99765.31;;;5.39;96.71
65756;BME280;52489;47.502;18.940;2022-11-11T05:46:44;99767.63;;;5.47;95.89
65756;BME280;52489;47.502;18.940;2022-11-11T05:47:47;99771.87;;;5.42;95.82
65756;BME280;52489;47.502;18.940;2022-11-11T05:48:50;99771.94;;;5.35;96.25
65756;BME280;52489;47.502;18.940;2022-11-11T05:50:16;99761.19;;;5.32;96.40
65756;BME280;52489;47.502;18.940;2022-11-11T05:51:18;99774.19;;;5.32;95.85
65756;BME280;52489;47.502;18.940;2022-11-11T05:52:29;99776.41;;;5.28;95.99
65756;BME280;52489;47.502;18.940;2022-11-11T05:53:33;99773.53;;;5.36;95.59
65756;BME280;52489;47.502;18.940;2022-11-11T05:54:36;99779.44;;;5.43;95.25
65756;BME280;52489;47.502;18.940;2022-11-11T05:55:38;99776.12;;;5.36;95.25
65756;BME280;52489;47.502;18.940;2022-11-11T05:56:41;99774.53;;;5.35;94.93
65756;BME280;52489;47.502;18.940;2022-11-11T05:57:44;99776.84;;;5.25;95.72
65756;BME280;52489;47.502;18.940;2022-11-11T05:58:47;99770.19;;;5.29;95.79
65756;BME280;52489;47.502;18.940;2022-11-11T05:59:52;99777.78;;;5.31;95.66
65756;BME280;52489;47.502;18.940;2022-11-11T06:00:54;99772.94;;;5.34;95.17
65756;BME280;52489;47.502;18.940;2022-11-11T06:01:57;99769.41;;;5.47;94.64
65756;BME280;52489;47.502;18.940;2022-11-11T06:03:04;99768.53;;;5.35;94.84